Impacts METAR Board INFO
IDs:

KTPA - Tampa Intl Arpt, FL, US

Updated at: 0434 UTC 21 Jan 2018
Potential Impact None Slight Moderate High
Time20/16Z 20/17Z 20/18Z 20/19Z 20/20Z 20/21Z 20/22Z 20/23Z 21/00Z 21/01Z 21/02Z 21/03Z 21/04Z
VIS10 10 10 10 10 10 10 10 10 10 10 10 10
CIG230 230 190 190 190 180 160 38 180 180 160 150 170
CoverOVCOVCOVCOVCOVCOVCOVCOVCOVCOVCOVCOVCOVC
FltCatVFRVFRVFRVFRVFRVFRVFRVFRVFRVFRVFRVFRVFR
WX--------------------------
WDir602002402402400026040030030
WSpd5 3 4 3 4 0 0 4 4 0 5 0 5
WGst-- -- -- -- -- -- -- -- -- -- -- -- --
Raw hourly METARs
KTPA 201553Z 06005KT 10SM SCT120 BKN230 OVC280 19/09 A3030 RMK AO2 SLP261 T01890089
KTPA 201653Z 20003KT 10SM FEW120 BKN230 OVC300 20/11 A3029 RMK AO2 SLP258 T02000106
KTPA 201753Z 24004KT 10SM SCT080 OVC190 18/09 A3026 RMK AO2 SLP248 T01780094 10206 20089 58016
KTPA 201853Z 24003KT 10SM FEW120 BKN190 OVC270 19/10 A3023 RMK AO2 SLP235 T01940100
KTPA 201953Z 24004KT 10SM OVC190 19/11 A3023 RMK AO2 SLP235 T01890106
KTPA 202053Z 00000KT 10SM OVC180 19/10 A3022 RMK AO2 SLP233 T01890100 56015
KTPA 202153Z COR 00000KT 10SM OVC160 19/11 A3023 RMK AO2 SLP237 T01890106
KTPA 202253Z 26004KT 10SM BKN038 OVC100 17/12 A3026 RMK AO2 SLP245 T01720117
KTPA 202353Z 04004KT 10SM FEW040 OVC180 18/11 A3025 RMK AO2 SLP242 T01780106 10211 20172 50009
KTPA 210053Z 00000KT 10SM OVC180 17/10 A3027 RMK AO2 SLP249 T01720100
KTPA 210153Z 03005KT 10SM OVC160 17/09 A3022 RMK AO2 PRESFR SLP234 T01670094
KTPA 210253Z 00000KT 10SM OVC150 17/10 A3028 RMK AO2 SLP254 T01670100 53012
KTPA 210353Z 03005KT 10SM OVC170 17/10 A3024 RMK AO2 SLP239 T01670100